Time;durP1;ratioP1;P1;durP2;ratioP2;P2;SDS_P1;SDS_P2;PMS_P1;PMS_P2;Temp;Humidity;BMP_temperature;BMP_pressure;BME280_temperature;BME280_humidity;BME280_pressure;Samples;Min_cycle;Max_cycle;Signal;HPM_P1;HPM_P2
2023/12/23 00:00:28;;;;;;;;;;;4.80;99.90;;;;;;4971329;28;21269;-71
2023/12/23 00:02:54;;;;;;;;;;;4.80;99.90;;;;;;4950337;28;19928;-70
2023/12/23 00:05:19;;;;;;;;;;;4.70;99.90;;;;;;4979806;28;20414;-69
2023/12/23 00:07:45;;;;;;;;;;;4.70;99.90;;;;;;4946908;28;19937;-69
2023/12/23 00:10:11;;;;;;;;;;;4.70;99.90;;;;;;4977276;28;21003;-69
2023/12/23 00:12:37;;;;;;;;;;;4.70;99.90;;;;;;4953989;28;19937;-69
2023/12/23 00:15:03;;;;;;;;;;;4.70;99.90;;;;;;5003151;28;19931;-70
2023/12/23 00:17:29;;;;;;;;;;;4.60;99.90;;;;;;4945892;28;19932;-70
2023/12/23 00:19:56;;;;;;;;;;;4.60;99.90;;;;;;4977216;28;20207;-70
2023/12/23 00:22:22;;;;;;;;;;;4.60;99.90;;;;;;4929054;28;19928;-70
2023/12/23 00:24:48;;;;;;;;;;;4.60;99.90;;;;;;4972787;28;19925;-70
2023/12/23 00:27:14;;;;;;;;;;;4.80;99.90;;;;;;4976670;28;19929;-70
2023/12/23 00:29:40;;;;;;;;;;;4.80;99.90;;;;;;4946578;28;20303;-70
2023/12/23 00:32:06;;;;;;;;;;;5.00;99.90;;;;;;4977600;28;19929;-70
2023/12/23 00:34:32;;;;;;;;;;;5.10;99.90;;;;;;4953410;28;19925;-69
2023/12/23 00:36:58;;;;;;;;;;;5.10;99.90;;;;;;4978991;28;19925;-71
2023/12/23 00:39:23;;;;;;;;;;;5.20;99.90;;;;;;4954162;28;19924;-70
2023/12/23 00:41:49;;;;;;;;;;;5.20;99.90;;;;;;4978754;28;20000;-71
2023/12/23 00:44:16;;;;;;;;;;;5.20;99.90;;;;;;4937648;28;19936;-70
2023/12/23 00:46:42;;;;;;;;;;;5.30;99.90;;;;;;4963762;28;19944;-68
2023/12/23 00:49:07;;;;;;;;;;;5.30;99.90;;;;;;4948673;28;21304;-69
2023/12/23 00:51:33;;;;;;;;;;;5.40;99.90;;;;;;4982819;28;20346;-70
2023/12/23 00:53:59;;;;;;;;;;;5.40;99.90;;;;;;4978557;28;20358;-69
2023/12/23 00:56:25;;;;;;;;;;;5.40;99.90;;;;;;4984950;28;19932;-69
2023/12/23 00:58:51;;;;;;;;;;;5.40;99.90;;;;;;4959882;28;19932;-69
2023/12/23 01:01:17;;;;;;;;;;;5.40;99.90;;;;;;4977429;28;19929;-70
2023/12/23 01:03:43;;;;;;;;;;;5.50;99.90;;;;;;4954749;28;19944;-69
2023/12/23 01:06:09;;;;;;;;;;;5.50;99.90;;;;;;4992495;28;19956;-70
2023/12/23 01:08:35;;;;;;;;;;;5.50;99.90;;;;;;4972463;28;19925;-69
2023/12/23 01:11:01;;;;;;;;;;;5.50;99.90;;;;;;4984790;28;19951;-69
2023/12/23 01:13:27;;;;;;;;;;;5.50;99.90;;;;;;4975777;28;20491;-69
2023/12/23 01:15:53;;;;;;;;;;;5.50;99.90;;;;;;4973099;28;19944;-70
2023/12/23 01:18:19;;;;;;;;;;;5.50;99.90;;;;;;4946667;28;21141;-69
2023/12/23 01:20:45;;;;;;;;;;;5.50;99.90;;;;;;4973856;28;19929;-70
2023/12/23 01:23:10;;;;;;;;;;;5.50;99.90;;;;;;4959071;28;20418;-69
2023/12/23 01:25:36;;;;;;;;;;;5.60;99.90;;;;;;4976580;28;19936;-70
2023/12/23 01:28:05;;;;;;;;;;;5.60;99.90;;;;;;4946955;28;19925;-69
2023/12/23 01:30:32;;;;;;;;;;;5.60;99.90;;;;;;4978043;28;20981;-69
2023/12/23 01:32:58;;;;;;;;;;;5.60;99.90;;;;;;4969657;28;19929;-69
2023/12/23 01:35:23;;;;;;;;;;;5.60;99.90;;;;;;4958020;28;19929;-70
2023/12/23 01:37:49;;;;;;;;;;;5.60;99.90;;;;;;4947588;28;21232;-69
2023/12/23 01:40:15;;;;;;;;;;;5.60;99.90;;;;;;4973997;28;21106;-70
2023/12/23 01:42:41;;;;;;;;;;;5.70;99.90;;;;;;4959242;28;19924;-71
2023/12/23 01:45:08;;;;;;;;;;;5.70;99.90;;;;;;5003366;28;19929;-68
2023/12/23 01:47:34;;;;;;;;;;;5.70;99.90;;;;;;4950687;28;19932;-71
2023/12/23 01:50:04;;;;;;;;;;;5.80;99.90;;;;;;4988901;28;19925;-69
2023/12/23 01:52:30;;;;;;;;;;;5.80;99.90;;;;;;4947377;28;19952;-69
2023/12/23 01:54:56;;;;;;;;;;;5.90;99.90;;;;;;4946754;28;20406;-68
2023/12/23 01:57:22;;;;;;;;;;;5.90;99.90;;;;;;4983198;28;20569;-69
2023/12/23 01:59:48;;;;;;;;;;;5.90;99.90;;;;;;4961963;28;20030;-70
2023/12/23 02:02:15;;;;;;;;;;;5.90;99.90;;;;;;4979113;28;19925;-69
2023/12/23 02:04:41;;;;;;;;;;;5.90;99.90;;;;;;4964083;28;19932;-70
2023/12/23 02:07:07;;;;;;;;;;;5.90;99.90;;;;;;5013121;28;19925;-69
2023/12/23 02:09:33;;;;;;;;;;;5.90;99.90;;;;;;4953327;28;19925;-69
2023/12/23 02:12:06;;;;;;;;;;;5.90;99.90;;;;;;4979844;28;20070;-69
2023/12/23 02:14:34;;;;;;;;;;;5.90;99.90;;;;;;4958582;28;19956;-69
2023/12/23 02:17:00;;;;;;;;;;;5.90;99.90;;;;;;4980992;28;20475;-69
2023/12/23 02:19:26;;;;;;;;;;;5.90;99.90;;;;;;4933959;28;19929;-69
2023/12/23 02:21:52;;;;;;;;;;;6.00;99.90;;;;;;5011250;28;19929;-70
2023/12/23 02:24:18;;;;;;;;;;;6.00;99.90;;;;;;4950145;28;20495;-70
2023/12/23 02:26:48;;;;;;;;;;;6.00;99.90;;;;;;4980852;28;19924;-71
2023/12/23 02:29:15;;;;;;;;;;;6.10;99.90;;;;;;4935465;28;19933;-70
2023/12/23 02:31:42;;;;;;;;;;;6.00;99.90;;;;;;4979861;28;19925;-70
2023/12/23 02:34:08;;;;;;;;;;;5.90;99.90;;;;;;4953860;28;20475;-70
2023/12/23 02:36:34;;;;;;;;;;;5.90;99.90;;;;;;4975968;28;19936;-70
2023/12/23 02:39:00;;;;;;;;;;;5.80;99.90;;;;;;4948144;28;19956;-70
2023/12/23 02:41:26;;;;;;;;;;;5.80;99.90;;;;;;4978333;28;19929;-70
2023/12/23 02:43:52;;;;;;;;;;;5.70;99.90;;;;;;4950539;28;20543;-70
2023/12/23 02:46:18;;;;;;;;;;;5.60;99.90;;;;;;5002285;28;19924;-70
2023/12/23 02:48:44;;;;;;;;;;;5.60;99.90;;;;;;4955490;28;20051;-70
2023/12/23 02:51:10;;;;;;;;;;;5.50;99.90;;;;;;4989447;28;20565;-71
2023/12/23 02:53:36;;;;;;;;;;;5.50;99.90;;;;;;4946131;28;19929;-71
2023/12/23 02:56:02;;;;;;;;;;;5.50;99.90;;;;;;4980929;28;19931;-71
2023/12/23 02:58:28;;;;;;;;;;;5.50;99.90;;;;;;4966662;28;19948;-71
2023/12/23 03:00:54;;;;;;;;;;;5.40;99.90;;;;;;4978586;28;20937;-72
2023/12/23 03:03:20;;;;;;;;;;;5.40;99.90;;;;;;4939985;28;20996;-72
2023/12/23 03:05:45;;;;;;;;;;;5.40;99.90;;;;;;4967616;28;19929;-73
2023/12/23 03:08:11;;;;;;;;;;;5.30;99.90;;;;;;4954347;28;19951;-72
2023/12/23 03:10:37;;;;;;;;;;;5.30;99.90;;;;;;4984190;28;20418;-73
2023/12/23 03:13:03;;;;;;;;;;;5.30;99.90;;;;;;4942100;28;19940;-73
2023/12/23 03:15:29;;;;;;;;;;;5.30;99.90;;;;;;4966205;28;20456;-73
2023/12/23 03:17:55;;;;;;;;;;;5.30;99.90;;;;;;4946809;28;20301;-73
2023/12/23 03:20:23;;;;;;;;;;;5.30;99.90;;;;;;4961064;28;19940;-73
2023/12/23 03:22:49;;;;;;;;;;;5.30;99.90;;;;;;4943280;28;19932;-73
2023/12/23 03:25:14;;;;;;;;;;;5.20;99.90;;;;;;4972696;28;19925;-73
2023/12/23 03:27:40;;;;;;;;;;;5.20;99.90;;;;;;4955442;28;19936;-74
2023/12/23 03:30:06;;;;;;;;;;;5.20;99.90;;;;;;5003878;28;19925;-75
2023/12/23 03:32:32;;;;;;;;;;;5.20;99.90;;;;;;4950601;28;19925;-75
2023/12/23 03:34:58;;;;;;;;;;;5.20;99.90;;;;;;4971711;28;19929;-75
2023/12/23 03:37:24;;;;;;;;;;;5.20;99.90;;;;;;4950210;28;20526;-75
2023/12/23 03:39:50;;;;;;;;;;;5.20;99.90;;;;;;4995774;28;19929;-75
2023/12/23 03:42:16;;;;;;;;;;;5.20;99.90;;;;;;4971929;28;19925;-77
2023/12/23 03:44:42;;;;;;;;;;;5.30;99.90;;;;;;4942821;28;19929;-77
2023/12/23 03:47:09;;;;;;;;;;;5.20;99.90;;;;;;4980877;28;20020;-78
2023/12/23 03:49:35;;;;;;;;;;;5.20;99.90;;;;;;4935944;28;19926;-78
2023/12/23 03:52:00;;;;;;;;;;;5.20;99.90;;;;;;4988683;28;20025;-79
2023/12/23 03:54:26;;;;;;;;;;;5.20;99.90;;;;;;4960586;28;20544;-78
2023/12/23 03:56:52;;;;;;;;;;;5.20;99.90;;;;;;4965493;28;19929;-79
2023/12/23 03:59:18;;;;;;;;;;;5.30;99.90;;;;;;4955454;28;19925;-80
2023/12/23 04:01:44;;;;;;;;;;;5.20;99.90;;;;;;4998319;28;19925;-79
2023/12/23 04:04:10;;;;;;;;;;;5.20;99.90;;;;;;4959879;28;20629;-80
2023/12/23 04:06:36;;;;;;;;;;;5.30;99.90;;;;;;4988644;28;20016;-78
2023/12/23 04:09:03;;;;;;;;;;;5.30;99.90;;;;;;4982141;28;19933;-80
2023/12/23 04:11:29;;;;;;;;;;;5.30;99.90;;;;;;4980143;28;19932;-79
2023/12/23 04:13:55;;;;;;;;;;;5.30;99.90;;;;;;4969300;28;20439;-78
2023/12/23 04:16:21;;;;;;;;;;;5.30;99.90;;;;;;4986400;28;20412;-79
2023/12/23 04:18:47;;;;;;;;;;;5.30;99.90;;;;;;4966775;28;20803;-78
2023/12/23 04:21:13;;;;;;;;;;;5.30;99.90;;;;;;4987130;28;19937;-78
2023/12/23 04:23:39;;;;;;;;;;;5.30;99.90;;;;;;4961592;28;20018;-78
2023/12/23 04:26:06;;;;;;;;;;;5.30;99.90;;;;;;5003235;28;19932;-77
2023/12/23 04:28:33;;;;;;;;;;;5.30;99.90;;;;;;4988895;28;19925;-76
2023/12/23 04:30:58;;;;;;;;;;;5.30;99.90;;;;;;4978695;28;19924;-77
2023/12/23 04:33:24;;;;;;;;;;;5.30;99.90;;;;;;4944866;28;20008;-77
2023/12/23 04:35:50;;;;;;;;;;;5.40;99.90;;;;;;4987552;28;20541;-77
2023/12/23 04:38:16;;;;;;;;;;;5.40;99.90;;;;;;4980929;28;19932;-78
2023/12/23 04:40:42;;;;;;;;;;;5.40;99.90;;;;;;4987638;28;20022;-78
2023/12/23 04:43:09;;;;;;;;;;;5.30;99.90;;;;;;4949395;28;20064;-77
2023/12/23 04:45:35;;;;;;;;;;;5.40;99.90;;;;;;4968511;28;19925;-77
2023/12/23 04:48:01;;;;;;;;;;;5.40;99.90;;;;;;4952695;28;19937;-78
2023/12/23 04:50:27;;;;;;;;;;;5.40;99.90;;;;;;4970075;28;19925;-77
2023/12/23 04:52:53;;;;;;;;;;;5.40;99.90;;;;;;4956412;28;19925;-78
2023/12/23 04:55:19;;;;;;;;;;;5.40;99.90;;;;;;5004085;28;20368;-78
2023/12/23 04:57:45;;;;;;;;;;;5.40;99.90;;;;;;4956410;28;19925;-78
2023/12/23 05:00:11;;;;;;;;;;;5.40;99.90;;;;;;4981965;28;19925;-78
2023/12/23 05:02:37;;;;;;;;;;;5.40;99.90;;;;;;4970769;28;19930;-77
2023/12/23 05:05:03;;;;;;;;;;;5.40;99.90;;;;;;4978145;28;19939;-76
2023/12/23 05:07:29;;;;;;;;;;;5.40;99.90;;;;;;4941753;28;19939;-77
2023/12/23 05:09:55;;;;;;;;;;;5.40;99.90;;;;;;4990392;28;19981;-77
2023/12/23 05:12:22;;;;;;;;;;;5.50;99.90;;;;;;4952147;28;20606;-77
2023/12/23 05:14:49;;;;;;;;;;;5.50;99.90;;;;;;4974858;28;19929;-77
2023/12/23 05:17:14;;;;;;;;;;;5.50;99.90;;;;;;5012078;28;19925;-77
2023/12/23 05:19:41;;;;;;;;;;;5.50;99.90;;;;;;4955691;28;20438;-76
2023/12/23 05:22:07;;;;;;;;;;;5.50;99.90;;;;;;4979547;28;21143;-77
2023/12/23 05:24:33;;;;;;;;;;;5.50;99.90;;;;;;4935189;28;20208;-77
2023/12/23 05:26:59;;;;;;;;;;;5.50;99.90;;;;;;4981930;28;19925;-78
2023/12/23 05:29:25;;;;;;;;;;;5.50;99.90;;;;;;4963304;28;20406;-77
2023/12/23 05:31:51;;;;;;;;;;;5.60;99.90;;;;;;4996176;28;19929;-78
2023/12/23 05:34:17;;;;;;;;;;;5.50;99.90;;;;;;4953806;28;19929;-78
2023/12/23 05:36:44;;;;;;;;;;;5.50;99.90;;;;;;4982203;28;19925;-78
2023/12/23 05:39:10;;;;;;;;;;;5.50;99.90;;;;;;4938815;28;20566;-78
2023/12/23 05:41:36;;;;;;;;;;;5.60;99.90;;;;;;4980260;28;19925;-78
2023/12/23 05:44:02;;;;;;;;;;;5.50;99.90;;;;;;4969881;28;19936;-78
2023/12/23 05:46:28;;;;;;;;;;;5.60;99.90;;;;;;4981435;28;20047;-78
2023/12/23 05:48:54;;;;;;;;;;;5.50;99.90;;;;;;4984677;28;19928;-77
2023/12/23 05:51:20;;;;;;;;;;;5.50;99.90;;;;;;4983770;28;19925;-78
2023/12/23 05:53:46;;;;;;;;;;;5.60;99.90;;;;;;4947542;28;19929;-77
2023/12/23 05:56:12;;;;;;;;;;;5.50;99.90;;;;;;4979832;28;19925;-77
2023/12/23 05:58:37;;;;;;;;;;;5.50;99.90;;;;;;4953271;28;20372;-77
2023/12/23 06:01:05;;;;;;;;;;;5.60;99.90;;;;;;4976891;28;19925;-78
2023/12/23 06:03:31;;;;;;;;;;;5.50;99.90;;;;;;4960725;28;19929;-77
2023/12/23 06:05:56;;;;;;;;;;;5.50;99.90;;;;;;4977918;28;20688;-77
2023/12/23 06:08:22;;;;;;;;;;;5.50;99.90;;;;;;4950741;28;20142;-77
2023/12/23 06:10:48;;;;;;;;;;;5.60;99.90;;;;;;4971132;28;21443;-78
2023/12/23 06:13:14;;;;;;;;;;;5.50;99.90;;;;;;4964771;28;20057;-77
2023/12/23 06:15:40;;;;;;;;;;;5.50;99.90;;;;;;4973229;28;19940;-77
2023/12/23 06:18:06;;;;;;;;;;;5.50;99.90;;;;;;4947839;28;19933;-76
2023/12/23 06:20:32;;;;;;;;;;;5.50;99.90;;;;;;4955445;28;20491;-77
2023/12/23 06:22:58;;;;;;;;;;;5.50;99.90;;;;;;4962493;28;19925;-76
2023/12/23 06:25:24;;;;;;;;;;;5.50;99.90;;;;;;4966195;28;19925;-77
2023/12/23 06:27:49;;;;;;;;;;;5.40;99.90;;;;;;4969051;28;19937;-77
2023/12/23 06:30:16;;;;;;;;;;;5.40;99.90;;;;;;4960700;28;19929;-77
2023/12/23 06:32:42;;;;;;;;;;;5.40;99.90;;;;;;4929044;28;20575;-77
2023/12/23 06:35:07;;;;;;;;;;;5.40;99.90;;;;;;4963518;28;19929;-78
2023/12/23 06:37:33;;;;;;;;;;;5.40;99.90;;;;;;4966917;28;19925;-77
2023/12/23 06:39:59;;;;;;;;;;;5.40;99.90;;;;;;4959793;28;20454;-77
2023/12/23 06:42:25;;;;;;;;;;;5.40;99.90;;;;;;4950332;28;19929;-77
2023/12/23 06:44:51;;;;;;;;;;;5.40;99.90;;;;;;4960054;28;20343;-77
2023/12/23 06:47:17;;;;;;;;;;;5.40;99.90;;;;;;4962414;28;19925;-76
2023/12/23 06:49:43;;;;;;;;;;;5.30;99.90;;;;;;4941176;28;19933;-77
2023/12/23 06:52:09;;;;;;;;;;;5.40;99.90;;;;;;4995419;28;19932;-77
2023/12/23 06:54:35;;;;;;;;;;;5.30;99.90;;;;;;4961869;28;19940;-76
2023/12/23 06:57:01;;;;;;;;;;;5.30;99.90;;;;;;5009025;28;19935;-77
2023/12/23 06:59:27;;;;;;;;;;;5.30;99.90;;;;;;4964977;28;19929;-77
2023/12/23 07:01:53;;;;;;;;;;;5.30;99.90;;;;;;5008391;28;19929;-76
2023/12/23 07:04:18;;;;;;;;;;;5.30;99.90;;;;;;4957671;28;19929;-77
2023/12/23 07:06:44;;;;;;;;;;;5.20;99.90;;;;;;4980503;28;20584;-76
2023/12/23 07:09:10;;;;;;;;;;;5.20;99.90;;;;;;4956974;28;19939;-76
2023/12/23 07:11:36;;;;;;;;;;;5.20;99.90;;;;;;4978879;28;20845;-76
2023/12/23 07:14:03;;;;;;;;;;;5.20;99.90;;;;;;4940180;28;19933;-77
2023/12/23 07:16:28;;;;;;;;;;;5.20;99.90;;;;;;4979776;28;20589;-75
2023/12/23 07:18:54;;;;;;;;;;;5.20;99.90;;;;;;4950724;28;20601;-77
2023/12/23 07:21:20;;;;;;;;;;;5.20;99.90;;;;;;4977663;28;20129;-76
2023/12/23 07:23:46;;;;;;;;;;;5.10;99.90;;;;;;4956993;28;20778;-76
2023/12/23 07:26:13;;;;;;;;;;;5.10;99.90;;;;;;4976543;28;20554;-76
2023/12/23 07:28:39;;;;;;;;;;;5.10;99.90;;;;;;4954985;28;20522;-76
2023/12/23 07:31:05;;;;;;;;;;;5.10;99.90;;;;;;4986703;28;19952;-76
2023/12/23 07:33:31;;;;;;;;;;;5.10;99.90;;;;;;4949565;28;19933;-76
2023/12/23 07:35:57;;;;;;;;;;;5.10;99.90;;;;;;4970918;28;20414;-75
2023/12/23 07:38:23;;;;;;;;;;;5.10;99.90;;;;;;4949960;28;19929;-76
2023/12/23 07:40:49;;;;;;;;;;;5.10;99.90;;;;;;4977381;28;20176;-76
2023/12/23 07:43:15;;;;;;;;;;;5.00;99.90;;;;;;4948369;28;19925;-76
2023/12/23 07:45:42;;;;;;;;;;;5.00;99.90;;;;;;4975546;28;20502;-76
2023/12/23 07:48:08;;;;;;;;;;;4.90;99.90;;;;;;4953124;28;21024;-76
2023/12/23 07:50:34;;;;;;;;;;;4.90;99.90;;;;;;4982009;28;19925;-76
2023/12/23 07:52:59;;;;;;;;;;;4.90;99.90;;;;;;4953219;28;19929;-76
2023/12/23 07:55:26;;;;;;;;;;;4.90;99.90;;;;;;4972033;28;20627;-76
2023/12/23 07:57:52;;;;;;;;;;;4.90;99.90;;;;;;4976151;28;19926;-75
2023/12/23 08:00:18;;;;;;;;;;;4.80;99.90;;;;;;4966855;28;20644;-74
2023/12/23 08:02:44;;;;;;;;;;;4.80;99.90;;;;;;4933099;28;19936;-75
2023/12/23 08:05:10;;;;;;;;;;;4.90;99.90;;;;;;4969756;28;20493;-75
2023/12/23 08:07:36;;;;;;;;;;;4.90;99.90;;;;;;4980600;28;20895;-76
2023/12/23 08:10:03;;;;;;;;;;;4.90;99.90;;;;;;4961068;28;19925;-75
2023/12/23 08:12:28;;;;;;;;;;;4.90;99.90;;;;;;4980001;28;19925;-73
2023/12/23 08:14:54;;;;;;;;;;;4.80;99.90;;;;;;4954053;28;20395;-74
2023/12/23 08:17:20;;;;;;;;;;;4.90;99.90;;;;;;4951613;28;19925;-73
2023/12/23 08:19:46;;;;;;;;;;;4.90;99.90;;;;;;4945060;28;21143;-73
2023/12/23 08:22:12;;;;;;;;;;;5.00;99.90;;;;;;4991804;28;19936;-73
2023/12/23 08:24:38;;;;;;;;;;;4.90;99.90;;;;;;4948651;28;19932;-74
2023/12/23 08:27:04;;;;;;;;;;;5.00;99.90;;;;;;4979124;28;19951;-75
2023/12/23 08:29:30;;;;;;;;;;;5.00;99.90;;;;;;4952566;28;19929;-76
2023/12/23 08:31:56;;;;;;;;;;;5.00;99.90;;;;;;4992275;28;19925;-76
2023/12/23 08:34:22;;;;;;;;;;;5.00;99.90;;;;;;4934814;28;20019;-76
2023/12/23 08:36:49;;;;;;;;;;;5.00;99.90;;;;;;4974035;28;20391;-77
2023/12/23 08:39:15;;;;;;;;;;;5.10;99.90;;;;;;4959422;28;19960;-77
2023/12/23 08:41:41;;;;;;;;;;;5.10;99.90;;;;;;5008573;28;20368;-75
2023/12/23 08:44:06;;;;;;;;;;;5.10;99.90;;;;;;4965413;28;19924;-75
2023/12/23 08:46:32;;;;;;;;;;;5.00;99.90;;;;;;4980476;28;19932;-75
2023/12/23 08:48:59;;;;;;;;;;;5.10;99.90;;;;;;4950866;28;20534;-75
2023/12/23 08:51:29;;;;;;;;;;;5.10;99.90;;;;;;4973251;28;20466;-75
2023/12/23 08:53:55;;;;;;;;;;;5.10;99.90;;;;;;4949074;28;20803;-75
2023/12/23 08:56:21;;;;;;;;;;;5.10;99.90;;;;;;4954291;28;19929;-75
2023/12/23 08:58:47;;;;;;;;;;;5.10;99.90;;;;;;4947110;28;19925;-74
2023/12/23 09:01:13;;;;;;;;;;;5.10;99.90;;;;;;4977687;28;20637;-75
2023/12/23 09:03:38;;;;;;;;;;;5.10;99.90;;;;;;4952863;28;19925;-76
2023/12/23 09:06:06;;;;;;;;;;;5.00;99.90;;;;;;4975515;28;20472;-75
2023/12/23 09:08:33;;;;;;;;;;;5.00;99.90;;;;;;4961898;28;19936;-76
2023/12/23 09:11:02;;;;;;;;;;;5.00;99.90;;;;;;4979067;28;19929;-76
2023/12/23 09:13:28;;;;;;;;;;;5.10;99.90;;;;;;4971095;28;19932;-76
2023/12/23 09:15:53;;;;;;;;;;;5.10;99.90;;;;;;4976806;28;19925;-77
2023/12/23 09:18:19;;;;;;;;;;;5.10;99.90;;;;;;4955188;28;19932;-76
2023/12/23 09:20:45;;;;;;;;;;;5.10;99.90;;;;;;4984291;28;19925;-77
2023/12/23 09:23:11;;;;;;;;;;;5.10;99.90;;;;;;4947216;28;19928;-77
2023/12/23 09:25:37;;;;;;;;;;;5.10;99.90;;;;;;4974177;28;19929;-77
2023/12/23 09:28:03;;;;;;;;;;;5.20;99.90;;;;;;4950059;28;19924;-77
2023/12/23 09:30:29;;;;;;;;;;;5.10;99.90;;;;;;4987425;28;19925;-77
2023/12/23 09:32:56;;;;;;;;;;;5.10;99.90;;;;;;4954486;28;19952;-77
2023/12/23 09:35:22;;;;;;;;;;;5.10;99.90;;;;;;4986670;28;21121;-77
2023/12/23 09:37:48;;;;;;;;;;;5.20;99.90;;;;;;4957649;28;19924;-77
2023/12/23 09:40:14;;;;;;;;;;;5.20;99.90;;;;;;4991348;28;19981;-76
2023/12/23 09:42:40;;;;;;;;;;;5.10;99.90;;;;;;4959397;28;19948;-76
2023/12/23 09:45:06;;;;;;;;;;;5.20;99.90;;;;;;4981270;28;20471;-76
2023/12/23 09:47:32;;;;;;;;;;;5.20;99.90;;;;;;4952084;28;20495;-76
2023/12/23 09:49:58;;;;;;;;;;;5.30;99.90;;;;;;4986437;28;20550;-76
2023/12/23 09:52:24;;;;;;;;;;;5.30;99.90;;;;;;4949719;28;20403;-77
2023/12/23 09:54:53;;;;;;;;;;;5.30;99.90;;;;;;4996934;28;20036;-75
2023/12/23 09:57:19;;;;;;;;;;;5.30;99.90;;;;;;4993185;28;19925;-76
2023/12/23 09:59:48;;;;;;;;;;;5.30;99.90;;;;;;4957624;28;19925;-76
2023/12/23 10:02:14;;;;;;;;;;;5.30;99.90;;;;;;4981379;28;19925;-76
2023/12/23 10:04:40;;;;;;;;;;;5.30;99.90;;;;;;4950288;28;20005;-77
2023/12/23 10:07:06;;;;;;;;;;;5.40;99.90;;;;;;4983009;28;21448;-76
2023/12/23 10:09:33;;;;;;;;;;;5.40;99.90;;;;;;4959965;28;20014;-76
2023/12/23 10:12:00;;;;;;;;;;;5.40;99.90;;;;;;4996916;28;19925;-76
2023/12/23 10:14:27;;;;;;;;;;;5.40;99.90;;;;;;4947643;28;19933;-75
2023/12/23 10:16:53;;;;;;;;;;;5.40;99.90;;;;;;5011896;28;20864;-74
2023/12/23 10:19:20;;;;;;;;;;;5.50;99.90;;;;;;4979408;28;20006;-75
2023/12/23 10:21:45;;;;;;;;;;;5.50;99.90;;;;;;4980114;28;19925;-75
2023/12/23 10:24:11;;;;;;;;;;;5.50;99.90;;;;;;4949279;28;20773;-75
2023/12/23 10:26:38;;;;;;;;;;;5.50;99.90;;;;;;4978853;28;20057;-76
2023/12/23 10:29:04;;;;;;;;;;;5.60;99.90;;;;;;4942032;28;19936;-76
2023/12/23 10:31:32;;;;;;;;;;;5.60;99.90;;;;;;4976122;28;19925;-76
2023/12/23 10:34:00;;;;;;;;;;;5.60;99.90;;;;;;4945935;28;19925;-76
2023/12/23 10:36:26;;;;;;;;;;;5.60;99.90;;;;;;4981493;28;20012;-75
2023/12/23 10:38:53;;;;;;;;;;;5.70;99.90;;;;;;4940568;28;20185;-75
2023/12/23 10:41:31;;;;;;;;;;;5.60;99.90;;;;;;4973582;28;19925;-75
2023/12/23 10:43:58;;;;;;;;;;;5.70;99.90;;;;;;4960896;28;20483;-75
2023/12/23 10:46:24;;;;;;;;;;;5.60;99.90;;;;;;4989262;28;19929;-76
2023/12/23 10:48:51;;;;;;;;;;;5.60;99.90;;;;;;4941976;28;20962;-74
2023/12/23 10:51:18;;;;;;;;;;;5.70;99.90;;;;;;4976535;28;20951;-75
2023/12/23 10:53:44;;;;;;;;;;;5.70;99.90;;;;;;4962321;28;19999;-75
2023/12/23 10:56:11;;;;;;;;;;;5.70;99.90;;;;;;4988480;28;19925;-75
2023/12/23 10:58:38;;;;;;;;;;;5.70;99.90;;;;;;4944331;28;19924;-76
2023/12/23 11:01:04;;;;;;;;;;;5.70;99.90;;;;;;4973296;28;19925;-75
2023/12/23 11:03:32;;;;;;;;;;;5.70;99.90;;;;;;4943527;28;20000;-76
2023/12/23 11:05:59;;;;;;;;;;;5.70;99.90;;;;;;4974054;28;19925;-76
2023/12/23 11:08:25;;;;;;;;;;;5.80;99.90;;;;;;4937691;28;19928;-76
2023/12/23 11:10:52;;;;;;;;;;;5.80;99.90;;;;;;4968655;28;19929;-75
2023/12/23 11:13:19;;;;;;;;;;;5.80;99.90;;;;;;4952197;28;19925;-75
2023/12/23 11:15:46;;;;;;;;;;;5.70;99.90;;;;;;4994887;28;19929;-75
2023/12/23 11:18:12;;;;;;;;;;;5.80;99.90;;;;;;4944841;28;19930;-74
2023/12/23 11:20:39;;;;;;;;;;;5.80;99.90;;;;;;4958526;28;19925;-75
2023/12/23 11:23:24;;;;;;;;;;;5.90;99.90;;;;;;4943364;28;19925;-75
2023/12/23 11:25:50;;;;;;;;;;;5.90;99.90;;;;;;4981173;28;19944;-75
2023/12/23 11:28:17;;;;;;;;;;;6.00;99.90;;;;;;4968748;28;19925;-75
2023/12/23 11:30:47;;;;;;;;;;;6.00;99.90;;;;;;4963099;28;20458;-74
2023/12/23 11:33:13;;;;;;;;;;;6.00;99.90;;;;;;4940647;28;19924;-74
2023/12/23 11:35:46;;;;;;;;;;;6.10;99.90;;;;;;4966178;28;19956;-74
2023/12/23 11:38:13;;;;;;;;;;;6.10;99.90;;;;;;4967348;28;21076;-73
2023/12/23 11:40:39;;;;;;;;;;;6.20;99.90;;;;;;4990682;28;20512;-73
2023/12/23 11:43:05;;;;;;;;;;;6.30;99.90;;;;;;4960009;28;19929;-73
2023/12/23 11:45:31;;;;;;;;;;;6.30;99.90;;;;;;4960395;28;20340;-73
2023/12/23 11:47:57;;;;;;;;;;;6.40;99.90;;;;;;4940784;28;20546;-73
2023/12/23 11:50:22;;;;;;;;;;;6.40;99.90;;;;;;4964713;28;21119;-73
2023/12/23 11:52:49;;;;;;;;;;;6.40;99.90;;;;;;4946632;28;19925;-73
2023/12/23 11:55:16;;;;;;;;;;;6.50;99.90;;;;;;4976894;28;19936;-74
2023/12/23 11:57:42;;;;;;;;;;;6.60;99.90;;;;;;4942748;28;19940;-73
2023/12/23 12:00:08;;;;;;;;;;;6.70;99.90;;;;;;4973100;28;19925;-73
2023/12/23 12:02:34;;;;;;;;;;;6.80;99.90;;;;;;4943731;28;19925;-73
2023/12/23 12:05:00;;;;;;;;;;;7.00;99.90;;;;;;4963955;28;20053;-73
2023/12/23 12:07:26;;;;;;;;;;;7.10;99.90;;;;;;4945539;28;19932;-73
2023/12/23 12:09:52;;;;;;;;;;;7.30;99.90;;;;;;4965778;28;19936;-73
2023/12/23 12:12:18;;;;;;;;;;;7.30;99.90;;;;;;4960936;28;19925;-73
2023/12/23 12:14:44;;;;;;;;;;;7.40;99.90;;;;;;4935512;28;19944;-74
2023/12/23 12:17:10;;;;;;;;;;;7.60;99.90;;;;;;4973641;28;19925;-73
2023/12/23 12:19:36;;;;;;;;;;;7.60;99.90;;;;;;4927227;28;20917;-73
2023/12/23 12:22:03;;;;;;;;;;;7.70;99.90;;;;;;4977026;28;19929;-74
2023/12/23 12:24:29;;;;;;;;;;;7.70;99.90;;;;;;4931416;28;20411;-73
2023/12/23 12:26:59;;;;;;;;;;;7.90;99.90;;;;;;4994923;28;19948;-73
2023/12/23 12:29:25;;;;;;;;;;;7.90;99.90;;;;;;4930406;28;19960;-73
2023/12/23 12:31:51;;;;;;;;;;;8.00;99.90;;;;;;4976025;28;19925;-72
2023/12/23 12:34:17;;;;;;;;;;;8.00;99.90;;;;;;4940615;28;19925;-73
2023/12/23 12:36:43;;;;;;;;;;;8.10;99.90;;;;;;4980914;28;19925;-72
2023/12/23 12:39:10;;;;;;;;;;;8.40;99.90;;;;;;4949202;28;20030;-72
2023/12/23 12:41:39;;;;;;;;;;;8.50;99.90;;;;;;4980722;28;21674;-72
2023/12/23 12:44:05;;;;;;;;;;;8.50;99.90;;;;;;4956944;28;19929;-71
2023/12/23 12:46:35;;;;;;;;;;;8.70;99.90;;;;;;4973419;28;19929;-72
2023/12/23 12:49:02;;;;;;;;;;;8.70;99.90;;;;;;4949500;28;19925;-74
2023/12/23 12:51:28;;;;;;;;;;;8.80;99.90;;;;;;4982437;28;19925;-71
2023/12/23 12:53:54;;;;;;;;;;;8.80;99.90;;;;;;4956940;28;19928;-71
2023/12/23 12:56:20;;;;;;;;;;;8.80;99.90;;;;;;4983328;28;20717;-71
2023/12/23 12:58:47;;;;;;;;;;;8.90;99.90;;;;;;4953145;28;19936;-71
2023/12/23 13:01:14;;;;;;;;;;;8.80;99.90;;;;;;4985338;28;20418;-71
2023/12/23 13:03:40;;;;;;;;;;;8.80;99.90;;;;;;4974933;28;20331;-71
2023/12/23 13:06:06;;;;;;;;;;;8.90;99.90;;;;;;4990212;28;21196;-71
2023/12/23 13:08:32;;;;;;;;;;;8.80;99.90;;;;;;4950075;28;19991;-72
2023/12/23 13:10:58;;;;;;;;;;;8.90;99.90;;;;;;4980594;28;20479;-72
2023/12/23 13:13:24;;;;;;;;;;;8.90;99.90;;;;;;4955317;28;19929;-73
2023/12/23 13:15:51;;;;;;;;;;;8.90;99.90;;;;;;4981909;28;19929;-71
2023/12/23 13:18:17;;;;;;;;;;;8.90;99.90;;;;;;4958411;28;19924;-72
2023/12/23 13:20:43;;;;;;;;;;;8.90;99.90;;;;;;4988089;28;19932;-71
2023/12/23 13:23:09;;;;;;;;;;;9.00;99.90;;;;;;4951828;28;19928;-71
2023/12/23 13:25:35;;;;;;;;;;;9.00;99.90;;;;;;4976641;28;19933;-71
2023/12/23 13:28:01;;;;;;;;;;;9.00;99.90;;;;;;4965180;28;20423;-72
2023/12/23 13:30:27;;;;;;;;;;;9.00;99.90;;;;;;4967479;28;19929;-71
2023/12/23 13:32:53;;;;;;;;;;;9.00;99.90;;;;;;4951493;28;19999;-71
2023/12/23 13:35:19;;;;;;;;;;;9.10;99.90;;;;;;5000585;28;20198;-72
2023/12/23 13:37:45;;;;;;;;;;;9.10;99.90;;;;;;4948566;28;19925;-70
2023/12/23 13:40:11;;;;;;;;;;;9.20;99.90;;;;;;4976658;28;19932;-69
2023/12/23 13:42:37;;;;;;;;;;;9.20;99.90;;;;;;4982004;28;19941;-70
2023/12/23 13:45:03;;;;;;;;;;;9.30;99.90;;;;;;4970374;28;19925;-72
2023/12/23 13:47:32;;;;;;;;;;;9.30;99.90;;;;;;4942870;28;19944;-70
2023/12/23 13:49:58;;;;;;;;;;;9.40;99.90;;;;;;4962703;28;19932;-70
2023/12/23 13:52:24;;;;;;;;;;;9.40;99.90;;;;;;4962294;28;21050;-70
2023/12/23 13:54:50;;;;;;;;;;;9.40;99.90;;;;;;4970463;28;19929;-69
2023/12/23 13:57:16;;;;;;;;;;;9.50;99.90;;;;;;4969075;28;19932;-71
2023/12/23 13:59:42;;;;;;;;;;;9.50;99.90;;;;;;4957789;28;20152;-70
2023/12/23 14:02:08;;;;;;;;;;;9.50;99.90;;;;;;4976166;28;21123;-70
2023/12/23 14:04:35;;;;;;;;;;;9.50;99.90;;;;;;4951618;28;19925;-70
2023/12/23 14:07:01;;;;;;;;;;;9.40;99.90;;;;;;4979190;28;19925;-70
2023/12/23 14:09:27;;;;;;;;;;;9.40;99.90;;;;;;4949387;28;19940;-69
2023/12/23 14:11:53;;;;;;;;;;;9.30;99.90;;;;;;4981172;28;19929;-69
2023/12/23 14:14:19;;;;;;;;;;;9.30;99.90;;;;;;4964724;28;19924;-70
2023/12/23 14:16:45;;;;;;;;;;;9.20;99.90;;;;;;4979033;28;19939;-70
2023/12/23 14:19:11;;;;;;;;;;;9.20;99.90;;;;;;4956299;28;20008;-70
2023/12/23 14:21:37;;;;;;;;;;;9.20;99.90;;;;;;4972477;28;19947;-71
2023/12/23 14:24:03;;;;;;;;;;;9.20;99.90;;;;;;4958133;28;21026;-70